createdAt,value
2022-10-12T00:01:13.202Z,1.70
2022-10-12T00:03:40.298Z,2.00
2022-10-12T00:06:11.907Z,1.70
2022-10-12T00:08:39.554Z,1.77
2022-10-12T00:11:07.646Z,1.63
2022-10-12T00:13:34.890Z,1.90
2022-10-12T00:16:09.192Z,1.63
2022-10-12T00:18:36.959Z,1.60
2022-10-12T00:21:08.756Z,1.60
2022-10-12T00:23:36.831Z,1.63
2022-10-12T00:26:08.562Z,1.50
2022-10-12T00:28:36.112Z,1.83
2022-10-12T00:31:07.453Z,1.80
2022-10-12T00:33:34.560Z,1.90
2022-10-12T00:36:11.025Z,1.90
2022-10-12T00:38:38.097Z,1.70
2022-10-12T00:41:05.836Z,1.83
2022-10-12T00:43:39.008Z,1.50
2022-10-12T00:46:08.277Z,1.80
2022-10-12T00:48:35.364Z,1.60
2022-10-12T00:51:03.252Z,1.70
2022-10-12T00:53:33.123Z,1.60
2022-10-12T00:56:01.791Z,1.80
2022-10-12T00:58:32.926Z,1.80
2022-10-12T01:01:04.319Z,1.70
2022-10-12T01:03:31.965Z,1.47
2022-10-12T01:05:59.947Z,1.60
2022-10-12T01:08:27.075Z,1.90
2022-10-12T01:10:54.740Z,1.37
2022-10-12T01:13:21.886Z,1.77
2022-10-12T01:15:55.190Z,1.50
2022-10-12T01:18:32.918Z,1.67
2022-10-12T01:21:00.076Z,1.63
2022-10-12T01:23:50.468Z,1.60
2022-10-12T01:26:17.546Z,1.50
2022-10-12T01:28:44.632Z,1.60
2022-10-12T01:31:37.847Z,1.90
2022-10-12T01:34:19.049Z,1.70
2022-10-12T01:36:49.536Z,1.50
2022-10-12T01:39:20.313Z,1.57
2022-10-12T01:41:47.392Z,1.63
2022-10-12T01:44:24.309Z,2.03
2022-10-12T01:46:52.279Z,1.70
2022-10-12T01:49:22.440Z,1.50
2022-10-12T01:52:13.463Z,1.70
2022-10-12T01:54:59.406Z,1.40
2022-10-12T01:57:35.320Z,1.53
2022-10-12T02:00:06.310Z,1.67
2022-10-12T02:02:42.348Z,1.70
2022-10-12T02:05:35.712Z,1.80
2022-10-12T02:08:14.805Z,1.70
2022-10-12T02:10:52.632Z,1.70
2022-10-12T02:13:21.078Z,2.00
2022-10-12T02:15:49.266Z,2.00
2022-10-12T02:18:18.084Z,1.63
2022-10-12T02:20:47.106Z,1.63
2022-10-12T02:23:14.607Z,1.97
2022-10-12T02:25:41.944Z,1.60
2022-10-12T02:28:11.529Z,1.50
2022-10-12T02:30:42.764Z,1.60
2022-10-12T02:33:15.886Z,1.77
2022-10-12T02:35:42.971Z,2.00
2022-10-12T02:38:14.646Z,1.87
2022-10-12T02:40:44.175Z,1.97
2022-10-12T02:43:37.302Z,2.63
2022-10-12T02:46:06.110Z,2.17
2022-10-12T02:48:34.346Z,2.20
2022-10-12T02:51:02.240Z,1.83
2022-10-12T02:53:30.769Z,1.80
2022-10-12T02:56:05.877Z,2.00
2022-10-12T02:58:33.178Z,2.07
2022-10-12T03:01:00.313Z,2.43
2022-10-12T03:03:27.480Z,2.13
2022-10-12T03:05:54.685Z,2.00
2022-10-12T03:08:21.764Z,2.00
2022-10-12T03:10:48.863Z,2.20
2022-10-12T03:13:15.939Z,2.00
2022-10-12T03:15:43.105Z,2.40
2022-10-12T03:18:10.215Z,2.40
2022-10-12T03:20:37.283Z,2.23
2022-10-12T03:23:04.368Z,2.40
2022-10-12T03:25:31.625Z,2.07
2022-10-12T03:27:58.740Z,2.13
2022-10-12T03:30:25.877Z,2.30
2022-10-12T03:32:53.011Z,2.50
2022-10-12T03:35:20.102Z,2.30
2022-10-12T03:37:47.171Z,2.30
2022-10-12T03:40:14.352Z,2.40
2022-10-12T03:42:41.416Z,2.33
2022-10-12T03:45:09.264Z,2.73
2022-10-12T03:47:37.976Z,2.10
2022-10-12T03:50:05.768Z,2.30
2022-10-12T03:52:33.041Z,2.93
2022-10-12T03:55:00.175Z,2.67
2022-10-12T03:57:27.250Z,2.37
2022-10-12T03:59:54.323Z,2.10
2022-10-12T04:02:21.407Z,2.40
2022-10-12T04:04:48.514Z,2.37
2022-10-12T04:07:15.678Z,2.40
2022-10-12T04:09:42.730Z,2.80
2022-10-12T04:12:09.808Z,2.27
2022-10-12T04:14:36.950Z,2.30
2022-10-12T04:17:04.530Z,2.70
2022-10-12T04:19:31.633Z,2.30
2022-10-12T04:21:58.788Z,2.47
2022-10-12T04:24:25.991Z,2.13
2022-10-12T04:26:53.043Z,2.00
2022-10-12T04:29:20.200Z,1.87
2022-10-12T04:31:47.273Z,1.63
2022-10-12T04:34:14.343Z,1.90
2022-10-12T04:36:41.457Z,1.70
2022-10-12T04:39:08.616Z,1.37
2022-10-12T04:41:35.735Z,1.67
2022-10-12T04:44:02.899Z,1.60
2022-10-12T04:46:30.005Z,1.40
2022-10-12T04:48:57.100Z,1.97
2022-10-12T04:51:24.876Z,1.70
2022-10-12T04:53:52.268Z,1.37
2022-10-12T04:56:19.394Z,1.67
2022-10-12T04:58:46.454Z,1.70
2022-10-12T05:01:13.591Z,1.67
2022-10-12T05:03:42.113Z,1.30
2022-10-12T05:06:09.568Z,1.70
2022-10-12T05:08:36.809Z,1.70
2022-10-12T05:11:03.946Z,1.67
2022-10-12T05:13:31.190Z,1.80
2022-10-12T05:15:58.991Z,1.63
2022-10-12T05:18:26.181Z,1.40
2022-10-12T05:20:56.783Z,1.70
2022-10-12T05:23:24.309Z,1.57
2022-10-12T05:25:51.487Z,1.40
2022-10-12T05:28:18.651Z,2.00
2022-10-12T05:30:45.810Z,1.60
2022-10-12T05:33:12.877Z,1.67
2022-10-12T05:35:42.863Z,1.80
2022-10-12T05:38:13.880Z,1.80
2022-10-12T05:40:40.962Z,1.80
2022-10-12T05:43:08.259Z,1.83
2022-10-12T05:45:35.335Z,1.50
2022-10-12T05:48:02.443Z,1.80
2022-10-12T05:50:29.532Z,1.87
2022-10-12T05:52:56.712Z,1.80
2022-10-12T05:55:23.776Z,1.87
2022-10-12T05:57:52.022Z,2.03
2022-10-12T06:00:19.326Z,1.80
2022-10-12T06:02:46.403Z,2.10
2022-10-12T06:05:13.571Z,2.00
2022-10-12T06:07:40.655Z,1.77
2022-10-12T06:10:08.942Z,1.77
2022-10-12T06:12:36.309Z,1.50
2022-10-12T06:15:03.625Z,1.80
2022-10-12T06:17:30.745Z,1.50
2022-10-12T06:19:58.268Z,1.43
2022-10-12T06:22:25.363Z,4.60
2022-10-12T06:24:52.439Z,1.50
2022-10-12T06:27:20.420Z,1.70
2022-10-12T06:29:47.536Z,1.47
2022-10-12T06:32:14.612Z,1.60
2022-10-12T06:34:41.687Z,1.60
2022-10-12T06:37:16.391Z,1.50
2022-10-12T06:39:55.956Z,2.00
2022-10-12T06:42:23.159Z,1.50
2022-10-12T06:44:51.448Z,1.80
2022-10-12T06:47:18.670Z,1.70
2022-10-12T06:49:45.931Z,2.30
2022-10-12T06:52:13.048Z,1.80
2022-10-12T06:54:41.301Z,1.97
2022-10-12T06:57:08.615Z,1.90
2022-10-12T06:59:35.839Z,2.10
2022-10-12T07:02:03.328Z,1.90
2022-10-12T07:04:30.473Z,2.00
2022-10-12T07:06:57.754Z,2.23
2022-10-12T07:09:24.848Z,2.00
2022-10-12T07:11:52.016Z,2.07
2022-10-12T07:14:19.122Z,2.20
2022-10-12T07:16:48.675Z,2.00
2022-10-12T07:19:18.772Z,2.30
2022-10-12T07:21:45.883Z,1.90
2022-10-12T07:24:13.534Z,1.90
2022-10-12T07:26:40.800Z,1.87
2022-10-12T07:29:07.980Z,1.80
2022-10-12T07:31:35.084Z,1.80
2022-10-12T07:34:03.275Z,1.90
2022-10-12T07:36:41.179Z,2.00
2022-10-12T07:39:14.901Z,2.00
2022-10-12T07:41:41.994Z,1.70
2022-10-12T07:44:09.170Z,1.77
2022-10-12T07:46:36.343Z,1.93
2022-10-12T07:49:03.818Z,1.67
2022-10-12T07:51:31.520Z,1.90
2022-10-12T07:54:00.188Z,1.73
2022-10-12T07:56:27.749Z,1.63
2022-10-12T07:58:55.655Z,2.07
2022-10-12T08:01:23.914Z,2.07
2022-10-12T08:03:51.342Z,1.57
2022-10-12T08:06:20.169Z,2.10
2022-10-12T08:08:47.406Z,2.20
2022-10-12T08:11:15.066Z,1.97
2022-10-12T08:13:42.815Z,1.93
2022-10-12T08:16:14.641Z,2.40
2022-10-12T08:18:41.725Z,2.13
2022-10-12T08:21:09.768Z,2.10
2022-10-12T08:23:37.274Z,1.90
2022-10-12T08:26:05.176Z,2.13
2022-10-12T08:28:33.571Z,2.10
2022-10-12T08:31:01.153Z,2.03
2022-10-12T08:33:30.007Z,2.30
2022-10-12T08:35:57.086Z,2.00
2022-10-12T08:38:24.228Z,2.10
2022-10-12T08:40:54.344Z,2.20
2022-10-12T08:43:44.450Z,2.30
2022-10-12T08:46:11.566Z,2.47
2022-10-12T08:48:47.546Z,2.23
2022-10-12T08:51:17.004Z,2.87
2022-10-12T08:53:56.378Z,2.60
2022-10-12T08:56:23.704Z,2.73
2022-10-12T08:58:51.999Z,2.40
2022-10-12T09:01:32.324Z,2.77
2022-10-12T09:04:02.695Z,2.73
2022-10-12T09:06:32.117Z,2.60
2022-10-12T09:09:05.741Z,2.30
2022-10-12T09:11:32.902Z,2.50
2022-10-12T09:14:06.763Z,2.80
2022-10-12T09:16:37.046Z,2.40
2022-10-12T09:19:08.991Z,2.30
2022-10-12T09:21:36.463Z,2.30
2022-10-12T09:24:04.580Z,2.33
2022-10-12T09:26:36.009Z,2.40
2022-10-12T09:29:05.569Z,2.20
2022-10-12T09:31:35.755Z,2.03
2022-10-12T09:34:05.539Z,2.00
2022-10-12T09:36:34.621Z,2.30
2022-10-12T09:39:04.292Z,2.13
2022-10-12T09:41:36.447Z,2.33
2022-10-12T09:44:04.286Z,2.03
2022-10-12T09:46:34.348Z,2.10
2022-10-12T09:49:01.904Z,2.60
2022-10-12T09:51:29.922Z,1.90
2022-10-12T09:54:03.217Z,2.07
2022-10-12T09:56:36.274Z,2.27
2022-10-12T09:59:06.337Z,2.90
2022-10-12T10:01:34.731Z,2.13
2022-10-12T10:04:09.912Z,2.37
2022-10-12T10:06:38.076Z,2.30
2022-10-12T10:09:05.855Z,2.30
2022-10-12T10:11:33.192Z,2.03
2022-10-12T10:14:01.923Z,2.30
2022-10-12T10:16:29.781Z,2.07
2022-10-12T10:19:01.614Z,2.30
2022-10-12T10:21:40.087Z,2.20
2022-10-12T10:24:24.792Z,2.30
2022-10-12T10:26:56.628Z,2.60
2022-10-12T10:29:40.549Z,2.27
2022-10-12T10:32:28.933Z,2.30
2022-10-12T10:35:04.952Z,1.97
2022-10-12T10:37:32.523Z,2.00
2022-10-12T10:40:00.271Z,1.93
2022-10-12T10:42:29.008Z,2.10
2022-10-12T10:45:00.861Z,2.20
2022-10-12T10:47:28.506Z,2.30
2022-10-12T10:49:57.458Z,2.43
2022-10-12T10:52:26.295Z,2.20
2022-10-12T10:55:17.163Z,2.13
2022-10-12T10:58:04.281Z,1.80
2022-10-12T11:00:39.196Z,2.10
2022-10-12T11:03:13.786Z,1.80
2022-10-12T11:06:07.397Z,1.87
2022-10-12T11:08:35.596Z,2.17
2022-10-12T11:11:14.814Z,2.10
2022-10-12T11:13:42.205Z,2.10
2022-10-12T11:16:27.290Z,2.00
2022-10-12T11:18:57.134Z,1.83
2022-10-12T11:21:33.359Z,2.00
2022-10-12T11:24:05.877Z,2.20
2022-10-12T11:26:46.340Z,2.40
2022-10-12T11:29:14.606Z,2.10
2022-10-12T11:31:58.834Z,1.80
2022-10-12T11:34:26.612Z,1.93
2022-10-12T11:37:18.062Z,2.40
2022-10-12T11:39:45.055Z,2.27
2022-10-12T11:42:21.755Z,2.20
2022-10-12T11:44:49.543Z,2.30
2022-10-12T11:47:35.291Z,1.90
2022-10-12T11:50:07.298Z,2.30
2022-10-12T11:52:37.635Z,2.20
2022-10-12T11:55:20.124Z,2.20
2022-10-12T11:57:48.068Z,2.17
2022-10-12T12:00:15.379Z,2.10
2022-10-12T12:02:44.863Z,2.03
2022-10-12T12:05:16.498Z,2.40
2022-10-12T12:07:48.540Z,2.10
2022-10-12T12:10:28.114Z,2.10
2022-10-12T12:13:14.754Z,2.30
2022-10-12T12:15:48.149Z,2.13
2022-10-12T12:18:17.523Z,2.23
2022-10-12T12:20:44.622Z,1.90
2022-10-12T12:23:30.656Z,2.00
2022-10-12T12:26:16.841Z,2.30
2022-10-12T12:28:46.485Z,2.43
2022-10-12T12:31:22.931Z,2.33
2022-10-12T12:33:52.044Z,2.30
2022-10-12T12:36:27.931Z,2.23
2022-10-12T12:38:55.135Z,2.00
2022-10-12T12:41:25.109Z,2.10
2022-10-12T12:43:59.470Z,2.37
2022-10-12T12:46:46.910Z,2.30
2022-10-12T12:49:39.136Z,2.10
2022-10-12T12:52:11.139Z,2.50
2022-10-12T12:54:45.811Z,2.43
2022-10-12T12:57:25.539Z,2.47
2022-10-12T13:00:11.216Z,2.77
2022-10-12T13:02:38.453Z,2.17
2022-10-12T13:05:08.343Z,1.83
2022-10-12T13:07:41.242Z,2.23
2022-10-12T13:10:26.699Z,2.00
2022-10-12T13:13:06.062Z,2.00
2022-10-12T13:15:52.015Z,2.13
2022-10-12T13:18:45.267Z,2.70
2022-10-12T13:21:07.420Z,2.40
2022-10-12T13:23:34.595Z,2.50
2022-10-12T13:26:04.206Z,2.23
2022-10-12T13:28:33.530Z,2.10
2022-10-12T13:31:14.674Z,2.20
2022-10-12T13:34:01.903Z,2.10
2022-10-12T13:36:31.999Z,2.53
2022-10-12T13:39:00.341Z,2.47
2022-10-12T13:41:30.336Z,2.13
2022-10-12T13:44:01.728Z,2.40
2022-10-12T13:46:37.377Z,2.30
2022-10-12T13:49:04.954Z,2.23
2022-10-12T13:51:32.156Z,2.40
2022-10-12T13:53:59.340Z,2.40
2022-10-12T13:56:30.456Z,2.63
2022-10-12T13:58:59.615Z,2.30
2022-10-12T14:01:27.066Z,2.50
2022-10-12T14:04:02.376Z,1.90
2022-10-12T14:06:31.352Z,2.17
2022-10-12T14:09:19.040Z,1.93
2022-10-12T14:11:47.042Z,2.27
2022-10-12T14:14:40.590Z,2.00
2022-10-12T14:17:07.898Z,2.00
2022-10-12T14:19:40.909Z,2.30
2022-10-12T14:22:08.236Z,2.13
2022-10-12T14:24:36.596Z,2.30
2022-10-12T14:27:05.749Z,2.10
2022-10-12T14:29:53.122Z,2.07
2022-10-12T14:32:20.195Z,2.77
2022-10-12T14:34:51.636Z,2.10
2022-10-12T14:37:18.695Z,2.00
2022-10-12T14:39:47.009Z,2.30
2022-10-12T14:42:17.185Z,2.20
2022-10-12T14:44:44.504Z,1.90
2022-10-12T14:47:17.454Z,2.33
2022-10-12T14:49:46.000Z,1.87
2022-10-12T14:52:22.273Z,2.07
2022-10-12T14:54:53.164Z,1.90
2022-10-12T14:57:20.664Z,2.30
2022-10-12T14:59:47.853Z,2.10
2022-10-12T15:02:16.736Z,2.00
2022-10-12T15:04:44.507Z,2.00
2022-10-12T15:07:16.452Z,2.33
2022-10-12T15:09:43.989Z,2.03
2022-10-12T15:12:13.117Z,1.90
2022-10-12T15:14:40.296Z,1.90
2022-10-12T15:17:07.417Z,2.13
2022-10-12T15:19:34.500Z,2.67
2022-10-12T15:22:01.639Z,1.93
2022-10-12T15:24:28.920Z,2.30
2022-10-12T15:26:56.008Z,2.27
2022-10-12T15:29:23.127Z,2.53
2022-10-12T15:31:51.287Z,2.10
2022-10-12T15:34:18.682Z,2.10
2022-10-12T15:36:45.830Z,2.00
2022-10-12T15:39:12.957Z,1.83
2022-10-12T15:41:40.105Z,2.17
2022-10-12T15:44:07.242Z,2.17
2022-10-12T15:46:34.369Z,2.17
2022-10-12T15:49:01.480Z,2.47
2022-10-12T15:51:28.720Z,2.20
2022-10-12T15:53:55.836Z,2.20
2022-10-12T15:56:22.983Z,2.40
2022-10-12T15:58:50.700Z,2.50
2022-10-12T16:01:19.057Z,2.57
2022-10-12T16:03:46.868Z,2.20
2022-10-12T16:06:14.046Z,2.20
2022-10-12T16:08:41.184Z,1.90
2022-10-12T16:11:09.376Z,1.80
2022-10-12T16:13:41.135Z,2.20
2022-10-12T16:16:11.657Z,2.13
2022-10-12T16:18:39.101Z,2.20
2022-10-12T16:21:06.364Z,2.07
2022-10-12T16:23:34.459Z,2.40
2022-10-12T16:26:06.005Z,2.50
2022-10-12T16:28:33.242Z,2.33
2022-10-12T16:31:00.435Z,2.17
2022-10-12T16:33:27.849Z,2.60
2022-10-12T16:35:54.984Z,2.23
2022-10-12T16:38:22.134Z,2.00
2022-10-12T16:40:49.783Z,2.47
2022-10-12T16:43:16.859Z,2.40
2022-10-12T16:45:43.943Z,2.27
2022-10-12T16:48:11.030Z,2.10
2022-10-12T16:50:40.653Z,2.17
2022-10-12T16:53:08.168Z,2.10
2022-10-12T16:55:37.354Z,2.53
2022-10-12T16:58:04.560Z,2.10
2022-10-12T17:00:31.691Z,2.17
2022-10-12T17:02:58.819Z,2.50
2022-10-12T17:05:25.953Z,2.17
2022-10-12T17:07:53.023Z,2.57
2022-10-12T17:10:20.196Z,2.23
2022-10-12T17:12:47.280Z,2.70
2022-10-12T17:15:14.365Z,2.20
2022-10-12T17:17:41.451Z,2.33
2022-10-12T17:20:08.884Z,2.20
2022-10-12T17:22:36.057Z,2.10
2022-10-12T17:25:03.159Z,2.30
2022-10-12T17:27:32.470Z,2.33
2022-10-12T17:29:59.722Z,2.10
2022-10-12T17:32:27.099Z,1.97
2022-10-12T17:34:54.163Z,2.27
2022-10-12T17:37:21.932Z,1.87
2022-10-12T17:39:50.275Z,2.20
2022-10-12T17:42:18.017Z,2.00
2022-10-12T17:44:45.332Z,1.87
2022-10-12T17:47:12.477Z,1.90
2022-10-12T17:49:39.563Z,2.03
2022-10-12T17:52:06.692Z,1.87
2022-10-12T17:54:34.000Z,1.73
2022-10-12T17:57:01.219Z,2.27
2022-10-12T17:59:28.386Z,2.10
2022-10-12T18:01:55.829Z,1.90
2022-10-12T18:04:22.998Z,2.00
2022-10-12T18:06:50.086Z,2.10
2022-10-12T18:09:17.479Z,1.70
2022-10-12T18:11:44.559Z,2.00
2022-10-12T18:14:13.129Z,1.93
2022-10-12T18:16:40.356Z,2.00
2022-10-12T18:19:09.520Z,2.00
2022-10-12T18:21:37.033Z,2.00
2022-10-12T18:24:16.049Z,2.53
2022-10-12T18:26:44.999Z,2.10
2022-10-12T18:29:12.104Z,2.20
2022-10-12T18:31:39.395Z,2.33
2022-10-12T18:34:06.666Z,2.47
2022-10-12T18:36:33.820Z,2.57
2022-10-12T18:39:01.808Z,2.13
2022-10-12T18:41:29.212Z,2.37
2022-10-12T18:43:57.974Z,2.50
2022-10-12T18:46:25.967Z,2.13
2022-10-12T18:48:53.099Z,2.30
2022-10-12T18:51:22.421Z,2.50
2022-10-12T18:53:49.582Z,2.37
2022-10-12T18:56:16.668Z,2.10
2022-10-12T18:58:44.002Z,2.60
2022-10-12T19:01:21.488Z,2.47
2022-10-12T19:03:48.813Z,2.50
2022-10-12T19:06:17.995Z,2.73
2022-10-12T19:08:45.274Z,2.60
2022-10-12T19:11:13.020Z,2.60
2022-10-12T19:13:40.288Z,2.23
2022-10-12T19:16:11.540Z,2.43
2022-10-12T19:18:39.112Z,2.40
2022-10-12T19:21:10.748Z,2.80
2022-10-12T19:23:37.900Z,2.40
2022-10-12T19:26:09.669Z,2.50
2022-10-12T19:28:36.821Z,2.47
2022-10-12T19:31:08.666Z,2.47
2022-10-12T19:33:35.756Z,2.50
2022-10-12T19:36:04.034Z,2.30
2022-10-12T19:38:31.147Z,2.40
2022-10-12T19:40:58.493Z,2.40
2022-10-12T19:43:25.654Z,2.60
2022-10-12T19:45:52.724Z,2.87
2022-10-12T19:48:19.998Z,2.63
2022-10-12T19:50:47.071Z,3.30
2022-10-12T19:53:14.925Z,2.43
2022-10-12T19:55:42.041Z,2.77
2022-10-12T19:58:09.136Z,3.00
2022-10-12T20:00:36.985Z,2.93
2022-10-12T20:03:04.722Z,2.37
2022-10-12T20:05:31.844Z,3.30
2022-10-12T20:07:58.926Z,3.00
2022-10-12T20:10:26.018Z,3.07
2022-10-12T20:12:53.152Z,2.87
2022-10-12T20:15:20.214Z,3.57
2022-10-12T20:17:47.384Z,3.00
2022-10-12T20:20:14.648Z,3.40
2022-10-12T20:22:41.730Z,2.93
2022-10-12T20:25:09.959Z,3.03
2022-10-12T20:27:37.518Z,3.10
2022-10-12T20:30:05.284Z,2.70
2022-10-12T20:32:34.267Z,3.20
2022-10-12T20:35:02.094Z,3.10
2022-10-12T20:37:29.624Z,2.90
2022-10-12T20:39:56.700Z,2.70
2022-10-12T20:42:24.214Z,2.77
2022-10-12T20:44:51.989Z,3.30
2022-10-12T20:47:19.226Z,2.63
2022-10-12T20:49:47.634Z,2.60
2022-10-12T20:52:14.742Z,2.70
2022-10-12T20:54:41.981Z,3.00
2022-10-12T20:57:09.326Z,2.73
2022-10-12T20:59:37.267Z,2.73
2022-10-12T21:02:04.812Z,3.00
2022-10-12T21:04:37.487Z,2.80
2022-10-12T21:07:05.459Z,2.97
2022-10-12T21:09:32.640Z,2.67
2022-10-12T21:11:59.725Z,2.90
2022-10-12T21:14:26.838Z,3.10
2022-10-12T21:16:53.924Z,3.27
2022-10-12T21:19:21.094Z,3.00
2022-10-12T21:21:48.198Z,3.10
2022-10-12T21:24:15.686Z,2.90
2022-10-12T21:26:42.933Z,3.20
2022-10-12T21:29:10.012Z,3.07
2022-10-12T21:31:37.163Z,2.83
2022-10-12T21:34:05.571Z,2.67
2022-10-12T21:36:35.388Z,2.90
2022-10-12T21:39:02.821Z,3.10
2022-10-12T21:41:30.386Z,2.43
2022-10-12T21:43:58.146Z,2.60
2022-10-12T21:46:26.470Z,2.80
2022-10-12T21:48:53.967Z,2.67
2022-10-12T21:51:21.798Z,2.90
2022-10-12T21:53:48.978Z,2.60
2022-10-12T21:56:17.561Z,2.80
2022-10-12T21:58:45.147Z,2.70
2022-10-12T22:01:14.313Z,2.50
2022-10-12T22:03:42.195Z,2.57
2022-10-12T22:06:16.867Z,2.73
2022-10-12T22:08:44.640Z,2.50
2022-10-12T22:11:12.599Z,3.30
2022-10-12T22:13:39.710Z,2.70
2022-10-12T22:16:11.741Z,3.03
2022-10-12T22:18:38.988Z,2.60
2022-10-12T22:21:07.182Z,3.00
2022-10-12T22:23:34.770Z,2.90
2022-10-12T22:26:02.559Z,2.77
2022-10-12T22:28:30.444Z,2.77
2022-10-12T22:30:57.596Z,2.73
2022-10-12T22:33:24.840Z,2.73
2022-10-12T22:35:52.884Z,2.90
2022-10-12T22:38:19.986Z,2.67
2022-10-12T22:40:57.146Z,2.80
2022-10-12T22:43:24.676Z,2.70
2022-10-12T22:45:51.854Z,3.00
2022-10-12T22:48:18.963Z,2.70
2022-10-12T22:50:46.779Z,3.13
2022-10-12T22:53:14.278Z,2.77
2022-10-12T22:55:41.871Z,3.00
2022-10-12T22:58:09.549Z,3.10
2022-10-12T23:00:36.699Z,3.17
2022-10-12T23:03:04.273Z,3.23
2022-10-12T23:05:31.744Z,3.43
2022-10-12T23:07:59.110Z,3.53
2022-10-12T23:10:26.338Z,3.53
2022-10-12T23:12:53.420Z,3.63
2022-10-12T23:15:20.540Z,3.53
2022-10-12T23:17:47.615Z,3.57
2022-10-12T23:20:14.675Z,3.30
2022-10-12T23:22:41.738Z,3.43
2022-10-12T23:25:08.923Z,3.17
2022-10-12T23:27:36.100Z,3.40
2022-10-12T23:30:03.295Z,3.07
2022-10-12T23:32:31.226Z,3.40
2022-10-12T23:34:58.392Z,3.10
2022-10-12T23:37:25.541Z,3.20
2022-10-12T23:39:52.651Z,3.00
2022-10-12T23:42:20.007Z,3.33
2022-10-12T23:44:47.423Z,3.20
2022-10-12T23:47:14.577Z,3.90
2022-10-12T23:49:41.749Z,3.53
2022-10-12T23:52:08.920Z,3.13
2022-10-12T23:54:36.050Z,3.20
2022-10-12T23:57:03.140Z,3.50
2022-10-12T23:59:30.245Z,3.37
